Time;durP1;ratioP1;P1;durP2;ratioP2;P2;SDS_P1;SDS_P2;PMS_P1;PMS_P2;Temp;Humidity;BMP_temperature;BMP_pressure;BME280_temperature;BME280_humidity;BME280_pressure;Samples;Min_cycle;Max_cycle;Signal;HPM_P1;HPM_P2
2021/08/02 00:01:04;;;;;;;4.40;2.47;;;;;;;19.16;40.79;100838.13;3574929;40;20325;-79
2021/08/02 00:03:46;;;;;;;4.68;2.78;;;;;;;19.17;41.14;100834.31;3577643;40;20494;-79
2021/08/02 00:06:21;;;;;;;3.80;2.72;;;;;;;19.17;40.96;100839.84;3575689;40;20146;-78
2021/08/02 00:08:57;;;;;;;4.50;3.05;;;;;;;19.18;41.48;100829.63;3575222;40;20078;-79
2021/08/02 00:11:37;;;;;;;4.57;3.03;;;;;;;19.18;41.51;100821.31;3578005;40;20149;-78
2021/08/02 00:14:09;;;;;;;4.57;3.30;;;;;;;19.17;41.62;100825.13;3574706;39;20198;-79
2021/08/02 00:16:38;;;;;;;4.50;2.65;;;;;;;19.13;40.90;100830.19;3577540;40;20037;-78
2021/08/02 00:19:08;;;;;;;4.68;3.10;;;;;;;19.15;40.87;100836.41;3578561;40;20427;-78
2021/08/02 00:21:37;;;;;;;4.93;2.88;;;;;;;19.14;40.83;100833.81;3576990;40;20085;-78
2021/08/02 00:24:06;;;;;;;4.03;2.60;;;;;;;19.13;40.96;100832.94;3578738;40;20063;-78
2021/08/02 00:26:34;;;;;;;5.35;2.92;;;;;;;19.13;41.04;100834.88;3576159;40;20133;-79
2021/08/02 00:29:03;;;;;;;5.97;3.20;;;;;;;19.12;41.01;100842.31;3579828;40;20044;-77
2021/08/02 00:31:32;;;;;;;5.15;3.20;;;;;;;19.13;41.62;100845.94;3579783;40;20052;-78
2021/08/02 00:34:01;;;;;;;4.35;2.75;;;;;;;19.11;40.92;100840.59;3578468;40;20096;-78
2021/08/02 00:36:39;;;;;;;4.90;3.22;;;;;;;19.15;41.51;100841.09;3579140;40;20067;-81
2021/08/02 00:39:15;;;;;;;5.30;3.00;;;;;;;19.11;41.51;100835.03;3575672;40;20302;-78
2021/08/02 00:42:22;;;;;;;4.05;2.70;;;;;;;19.10;41.54;100835.25;3574349;40;20037;-79
2021/08/02 00:45:11;;;;;;;4.63;3.13;;;;;;;19.09;41.79;100839.06;3577043;40;20130;-78
2021/08/02 00:47:46;;;;;;;4.38;2.97;;;;;;;19.11;41.23;100842.50;3575279;40;20048;-80
2021/08/02 00:50:17;;;;;;;5.97;3.08;;;;;;;19.09;41.21;100844.63;3575400;40;20414;-79
2021/08/02 00:52:51;;;;;;;4.00;2.58;;;;;;;19.08;41.70;100832.66;3584799;39;20045;-79
2021/08/02 00:55:20;;;;;;;5.20;2.97;;;;;;;19.07;41.71;100838.41;3578750;40;20552;-79
2021/08/02 00:57:54;;;;;;;4.72;2.97;;;;;;;19.06;41.36;100840.31;3576061;40;20041;-78
2021/08/02 01:00:22;;;;;;;4.07;2.78;;;;;;;19.02;41.52;100847.25;3578706;40;20033;-78
2021/08/02 01:02:56;;;;;;;4.63;2.67;;;;;;;19.03;41.67;100843.44;3578718;40;20053;-79
2021/08/02 01:05:26;;;;;;;4.35;3.05;;;;;;;19.01;41.49;100841.94;3574660;40;20057;-79
2021/08/02 01:08:01;;;;;;;4.75;3.00;;;;;;;19.02;41.73;100850.03;3574036;40;20036;-79
2021/08/02 01:10:33;;;;;;;4.05;2.72;;;;;;;19.01;41.63;100844.69;3582009;40;20060;-79
2021/08/02 01:13:07;;;;;;;5.15;3.22;;;;;;;18.99;41.59;100839.34;3577831;40;20075;-79
2021/08/02 01:15:38;;;;;;;4.88;2.92;;;;;;;18.95;42.16;100846.28;3577445;40;20037;-79
2021/08/02 01:18:12;;;;;;;5.00;2.85;;;;;;;18.98;42.07;100839.53;3577749;40;20049;-79
2021/08/02 01:20:47;;;;;;;5.22;2.72;;;;;;;18.97;41.69;100837.78;3577068;40;20060;-79
2021/08/02 01:23:17;;;;;;;4.90;2.72;;;;;;;18.95;41.73;100843.53;3577494;39;20069;-79
2021/08/02 01:26:15;;;;;;;3.92;2.20;;;;;;;18.93;42.13;100840.09;3574755;40;20037;-79
2021/08/02 01:29:21;;;;;;;4.10;2.38;;;;;;;18.91;41.83;100835.78;3571007;40;20041;-79
2021/08/02 01:31:49;;;;;;;5.13;2.22;;;;;;;18.87;41.76;100842.72;3578825;40;20052;-79
2021/08/02 01:34:20;;;;;;;3.83;2.28;;;;;;;18.87;42.01;100832.50;3577518;40;20029;-79
2021/08/02 01:36:49;;;;;;;3.78;2.40;;;;;;;18.87;41.42;100838.06;3576004;40;20053;-79
2021/08/02 01:39:21;;;;;;;4.47;2.50;;;;;;;18.86;42.06;100836.31;3577685;40;20053;-79
2021/08/02 01:41:49;;;;;;;4.10;2.40;;;;;;;18.85;41.60;100845.72;3568888;40;20026;-79
2021/08/02 01:44:18;;;;;;;4.10;2.30;;;;;;;18.84;41.59;100840.34;3575369;40;20326;-79
2021/08/02 01:46:53;;;;;;;3.92;2.40;;;;;;;18.86;41.63;100844.66;3586289;40;20117;-78
2021/08/02 01:49:28;;;;;;;3.50;2.03;;;;;;;18.86;41.44;100844.66;3571377;40;20045;-78
2021/08/02 01:51:58;;;;;;;3.58;2.35;;;;;;;18.83;41.89;100850.59;3578068;40;20052;-79
2021/08/02 01:54:42;;;;;;;3.47;2.03;;;;;;;18.86;41.39;100846.56;3578734;40;20302;-79
2021/08/02 01:57:16;;;;;;;3.28;2.03;;;;;;;18.82;41.65;100848.84;3578350;39;20056;-79
2021/08/02 02:00:05;;;;;;;3.90;2.50;;;;;;;18.79;41.42;100849.22;3578589;40;20284;-79
2021/08/02 02:03:01;;;;;;;3.83;2.42;;;;;;;18.77;42.09;100846.59;3577860;40;20192;-79
2021/08/02 02:05:39;;;;;;;3.67;2.42;;;;;;;18.72;41.32;100843.53;3579473;40;20035;-79
2021/08/02 02:08:13;;;;;;;4.40;2.25;;;;;;;18.76;41.59;100844.91;3576407;40;20053;-79
2021/08/02 02:10:49;;;;;;;4.07;2.13;;;;;;;18.75;41.34;100845.06;3578195;40;20099;-78
2021/08/02 02:13:22;;;;;;;4.05;2.45;;;;;;;18.72;41.35;100851.84;3577690;40;20142;-79
2021/08/02 02:15:54;;;;;;;4.35;2.20;;;;;;;18.71;41.39;100843.72;3578352;40;20584;-79
2021/08/02 02:18:24;;;;;;;4.18;2.03;;;;;;;18.68;41.68;100855.19;3577265;40;20073;-78
2021/08/02 02:20:54;;;;;;;2.83;1.85;;;;;;;18.67;41.83;100859.00;3578498;40;20057;-80
2021/08/02 02:23:27;;;;;;;3.42;2.10;;;;;;;18.64;41.83;100865.75;3578586;39;20056;-79
2021/08/02 02:25:57;;;;;;;2.85;1.70;;;;;;;18.64;41.25;100856.59;3570416;40;20400;-80
2021/08/02 02:28:26;;;;;;;3.15;1.65;;;;;;;18.60;41.20;100858.03;3578475;39;20445;-79
2021/08/02 02:31:06;;;;;;;4.32;1.67;;;;;;;18.59;41.12;100861.84;3578424;40;20053;-79
2021/08/02 02:33:35;;;;;;;4.65;2.15;;;;;;;18.57;41.24;100862.00;3577203;40;20045;-79
2021/08/02 02:36:05;;;;;;;3.92;1.92;;;;;;;18.57;41.27;100861.16;3578196;40;20052;-79
2021/08/02 02:38:35;;;;;;;5.45;2.03;;;;;;;18.54;41.14;100867.91;3577757;40;20051;-80
2021/08/02 02:41:05;;;;;;;5.60;2.30;;;;;;;18.53;41.58;100868.09;3577907;40;20137;-79
2021/08/02 02:43:40;;;;;;;3.28;1.98;;;;;;;18.47;41.29;100866.94;3568732;40;20189;-79
2021/08/02 02:46:09;;;;;;;4.65;2.10;;;;;;;18.44;41.53;100865.38;3578380;40;20033;-79
2021/08/02 02:48:39;;;;;;;5.25;2.10;;;;;;;18.42;41.38;100869.41;3576870;40;20048;-79
2021/08/02 02:51:08;;;;;;;3.83;2.00;;;;;;;18.39;40.90;100873.38;3578471;40;20095;-79
2021/08/02 02:53:37;;;;;;;3.80;1.70;;;;;;;18.33;41.46;100857.50;3577650;40;20063;-79
2021/08/02 02:56:08;;;;;;;3.33;1.75;;;;;;;18.33;41.42;100856.66;3578443;40;20059;-80
2021/08/02 02:58:40;;;;;;;4.45;1.88;;;;;;;18.29;41.58;100855.28;3577731;40;20390;-79
2021/08/02 03:01:10;;;;;;;3.28;1.60;;;;;;;18.27;41.10;100854.63;3579542;40;20410;-80
2021/08/02 03:03:45;;;;;;;2.92;1.65;;;;;;;18.26;41.12;100850.97;3576126;40;20041;-80
2021/08/02 03:06:13;;;;;;;3.92;1.50;;;;;;;18.24;41.18;100863.28;3578966;40;20036;-81
2021/08/02 03:08:44;;;;;;;5.18;1.50;;;;;;;18.21;41.62;100867.25;3579067;39;20056;-79
2021/08/02 03:11:16;;;;;;;2.42;1.40;;;;;;;18.23;40.96;100865.19;3578702;40;20350;-79
2021/08/02 03:13:45;;;;;;;3.05;1.27;;;;;;;18.18;41.10;100862.13;3579205;40;20052;-84
2021/08/02 03:16:13;;;;;;;3.67;1.40;;;;;;;18.20;41.38;100867.44;3578564;40;20307;-80
2021/08/02 03:18:41;;;;;;;5.03;1.65;;;;;;;18.19;41.33;100869.38;3578818;39;20378;-79
2021/08/02 03:21:09;;;;;;;3.53;1.65;;;;;;;18.19;40.81;100860.19;3579236;40;20040;-80
2021/08/02 03:23:47;;;;;;;3.75;1.38;;;;;;;18.21;41.51;100864.50;3579270;39;20334;-79
2021/08/02 03:26:19;;;;;;;2.50;1.30;;;;;;;18.20;40.89;100871.06;3579207;40;20106;-79
2021/08/02 03:28:51;;;;;;;3.33;1.52;;;;;;;18.17;41.46;100870.59;3575849;40;20045;-80
2021/08/02 03:31:23;;;;;;;5.75;1.63;;;;;;;18.19;41.33;100865.75;3578500;40;20405;-80
2021/08/02 03:33:53;;;;;;;3.42;1.23;;;;;;;18.16;40.82;100866.97;3569149;40;20046;-79
2021/08/02 03:36:22;;;;;;;4.22;1.80;;;;;;;18.17;40.73;100863.16;3578668;40;20036;-79
2021/08/02 03:38:51;;;;;;;3.15;1.40;;;;;;;18.18;41.10;100870.41;3577910;40;20068;-79
2021/08/02 03:41:22;;;;;;;4.65;1.58;;;;;;;18.18;41.28;100873.19;3578371;40;20033;-80
2021/08/02 03:43:51;;;;;;;4.13;1.50;;;;;;;18.17;40.88;100867.81;3572998;40;20310;-80
2021/08/02 03:46:21;;;;;;;3.40;1.33;;;;;;;18.17;40.74;100873.34;3578427;40;20034;-79
2021/08/02 03:48:49;;;;;;;3.47;1.75;;;;;;;18.16;41.06;100882.72;3578957;39;20045;-79
2021/08/02 03:51:18;;;;;;;3.63;1.60;;;;;;;18.15;40.96;100873.53;3578195;40;20118;-80
2021/08/02 03:53:48;;;;;;;3.58;1.40;;;;;;;18.17;41.35;100879.75;3579110;40;20056;-79
2021/08/02 03:56:17;;;;;;;3.45;1.50;;;;;;;18.15;41.16;100880.97;3579624;40;20036;-79
2021/08/02 03:58:47;;;;;;;3.67;1.60;;;;;;;18.16;40.93;100885.47;3580376;40;20049;-79
2021/08/02 04:01:15;;;;;;;2.92;1.60;;;;;;;18.14;40.84;100884.78;3585879;40;20076;-79
2021/08/02 04:03:43;;;;;;;3.67;1.65;;;;;;;18.14;41.19;100893.97;3582547;40;20041;-79
2021/08/02 04:06:11;;;;;;;4.38;1.77;;;;;;;18.13;41.31;100895.00;3580522;40;20056;-80
2021/08/02 04:08:39;;;;;;;3.22;1.52;;;;;;;18.12;40.91;100896.03;3577145;40;20057;-79
2021/08/02 04:11:07;;;;;;;5.05;1.55;;;;;;;18.14;41.02;100893.97;3579257;40;20033;-80
2021/08/02 04:13:35;;;;;;;4.80;1.60;;;;;;;18.13;41.36;100899.66;3574205;40;20069;-79
2021/08/02 04:16:05;;;;;;;3.75;1.60;;;;;;;18.13;41.12;100897.75;3577074;40;20062;-79
2021/08/02 04:18:34;;;;;;;3.33;1.90;;;;;;;18.10;41.25;100900.91;3575177;40;20033;-79
2021/08/02 04:21:01;;;;;;;4.22;1.80;;;;;;;18.08;41.35;100916.84;3578011;40;20033;-79
2021/08/02 04:23:29;;;;;;;3.80;1.77;;;;;;;18.06;40.69;100921.69;3579803;40;20401;-82
2021/08/02 04:25:58;;;;;;;4.22;1.80;;;;;;;18.04;40.91;100921.00;3579728;40;20044;-79
2021/08/02 04:28:26;;;;;;;2.75;1.45;;;;;;;18.04;41.35;100915.44;3578438;40;20408;-78
2021/08/02 04:30:54;;;;;;;3.75;1.67;;;;;;;18.02;41.36;100910.09;3575282;40;20422;-80
2021/08/02 04:33:23;;;;;;;5.28;1.95;;;;;;;18.04;41.31;100907.16;3575094;40;20100;-79
2021/08/02 04:35:51;;;;;;;3.78;1.70;;;;;;;17.99;41.64;100902.13;3579126;40;20061;-78
2021/08/02 04:38:19;;;;;;;4.63;1.83;;;;;;;18.00;41.52;100911.31;3578311;40;20476;-79
2021/08/02 04:40:47;;;;;;;4.10;1.73;;;;;;;18.00;41.06;100908.53;3576489;40;20069;-79
2021/08/02 04:43:15;;;;;;;4.10;1.70;;;;;;;17.99;41.06;100910.44;3579663;39;20134;-79
2021/08/02 04:45:43;;;;;;;3.78;1.45;;;;;;;17.99;41.62;100917.88;3580087;40;20093;-79
2021/08/02 04:48:11;;;;;;;4.40;2.10;;;;;;;17.99;41.74;100913.22;3579935;40;20052;-79
2021/08/02 04:50:43;;;;;;;4.07;2.05;;;;;;;18.00;41.70;100909.41;3579153;40;20081;-79
2021/08/02 04:53:11;;;;;;;4.45;2.00;;;;;;;17.98;41.71;100914.25;3579322;40;20072;-79
2021/08/02 04:55:39;;;;;;;4.22;1.75;;;;;;;17.98;41.64;100921.69;3577119;40;20037;-79
2021/08/02 04:58:07;;;;;;;5.40;1.80;;;;;;;17.97;41.38;100923.59;3579318;40;20483;-80
2021/08/02 05:00:35;;;;;;;5.13;1.77;;;;;;;17.97;41.71;100931.88;3581228;40;20037;-81
2021/08/02 05:03:04;;;;;;;5.22;2.20;;;;;;;17.98;42.00;100935.53;3580529;40;20052;-81
2021/08/02 05:05:32;;;;;;;4.85;2.00;;;;;;;17.98;41.96;100924.44;3578787;40;20118;-80
2021/08/02 05:08:01;;;;;;;5.00;1.75;;;;;;;18.00;41.87;100927.91;3570572;40;20284;-81
2021/08/02 05:10:29;;;;;;;4.75;2.05;;;;;;;17.99;41.46;100926.19;3570451;40;20033;-81
2021/08/02 05:12:57;;;;;;;4.65;1.75;;;;;;;18.00;41.83;100916.84;3571172;40;20045;-83
2021/08/02 05:15:25;;;;;;;5.28;2.30;;;;;;;18.01;41.61;100926.88;3579735;40;20029;-79
2021/08/02 05:17:53;;;;;;;5.13;2.10;;;;;;;18.00;41.51;100912.16;3580258;40;20138;-79
2021/08/02 05:20:21;;;;;;;5.70;2.30;;;;;;;18.02;41.36;100914.75;3578549;40;20031;-79
2021/08/02 05:22:50;;;;;;;4.35;1.80;;;;;;;18.00;41.99;100923.25;3577293;39;20049;-79
2021/08/02 05:25:20;;;;;;;5.15;1.85;;;;;;;18.02;41.99;100918.41;3577938;40;20048;-79
2021/08/02 05:27:50;;;;;;;6.15;2.33;;;;;;;18.02;41.94;100928.59;3574446;40;20130;-79
2021/08/02 05:30:18;;;;;;;6.47;2.28;;;;;;;17.98;41.74;100928.09;3579730;40;20036;-79
2021/08/02 05:32:46;;;;;;;6.03;1.98;;;;;;;17.97;41.90;100922.72;3578996;40;20045;-79
2021/08/02 05:35:15;;;;;;;6.68;1.98;;;;;;;17.97;41.34;100931.03;3579713;40;20037;-78
2021/08/02 05:37:44;;;;;;;8.20;2.00;;;;;;;17.95;42.13;100930.34;3578953;39;20088;-80
2021/08/02 05:40:14;;;;;;;6.97;2.08;;;;;;;17.94;41.96;100939.72;3578965;40;20339;-80
2021/08/02 05:42:43;;;;;;;4.00;1.63;;;;;;;17.93;42.05;100938.84;3569704;40;20326;-81
2021/08/02 05:45:12;;;;;;;5.32;1.80;;;;;;;17.92;41.62;100947.31;3575627;40;20041;-80
2021/08/02 05:47:40;;;;;;;5.95;2.00;;;;;;;17.92;42.05;100944.53;3573999;40;20134;-80
2021/08/02 05:50:09;;;;;;;4.53;1.92;;;;;;;17.92;41.95;100950.09;3574738;40;20034;-79
2021/08/02 05:52:41;;;;;;;5.60;2.33;;;;;;;17.92;42.09;100942.66;3579348;40;20633;-80
2021/08/02 05:55:12;;;;;;;4.95;1.77;;;;;;;17.89;41.63;100943.00;3580458;40;20065;-79
2021/08/02 05:57:41;;;;;;;3.67;1.98;;;;;;;17.88;42.11;100944.03;3580167;40;20390;-79
2021/08/02 06:00:12;;;;;;;4.70;2.17;;;;;;;17.90;42.09;100949.38;3580261;40;20061;-80
2021/08/02 06:02:40;;;;;;;5.03;1.95;;;;;;;17.86;41.86;100948.03;3571073;40;20397;-81
2021/08/02 06:05:10;;;;;;;4.30;2.15;;;;;;;17.85;41.67;100952.72;3580944;40;20041;-81
2021/08/02 06:07:41;;;;;;;6.68;2.20;;;;;;;17.84;41.75;100948.22;3580506;40;20389;-80
2021/08/02 06:10:10;;;;;;;4.85;1.90;;;;;;;17.85;41.99;100947.16;3581077;40;20390;-81
2021/08/02 06:12:39;;;;;;;5.55;1.70;;;;;;;17.87;42.31;100956.13;3578856;40;20057;-79
2021/08/02 06:15:15;;;;;;;3.97;1.60;;;;;;;17.90;42.35;100952.16;3573388;40;20135;-79
2021/08/02 06:17:46;;;;;;;5.40;1.80;;;;;;;17.94;42.23;100959.06;3561347;40;20066;-81
2021/08/02 06:20:14;;;;;;;3.97;1.85;;;;;;;17.93;42.05;100960.13;3585275;40;20115;-81
2021/08/02 06:22:42;;;;;;;5.38;2.00;;;;;;;17.96;41.63;100951.44;3580434;39;20104;-81
2021/08/02 06:25:11;;;;;;;3.40;1.60;;;;;;;17.96;41.72;100955.06;3579952;40;20642;-82
2021/08/02 06:27:39;;;;;;;2.90;1.63;;;;;;;17.98;41.92;100952.13;3579677;40;20071;-81
2021/08/02 06:30:09;;;;;;;2.55;1.27;;;;;;;18.01;41.61;100957.31;3581076;40;20033;-82
2021/08/02 06:32:38;;;;;;;3.13;1.35;;;;;;;18.02;41.37;100962.69;3579138;40;20045;-82
2021/08/02 06:35:08;;;;;;;3.70;1.48;;;;;;;18.00;41.11;100970.28;3580729;40;20048;-83
2021/08/02 06:37:39;;;;;;;3.58;1.70;;;;;;;18.03;40.94;100963.56;3587400;39;20053;-82
2021/08/02 06:40:10;;;;;;;2.95;1.23;;;;;;;18.03;40.80;100969.09;3578247;40;20069;-81
2021/08/02 06:42:38;;;;;;;3.50;1.30;;;;;;;18.02;41.14;100970.13;3570187;40;20045;-85
2021/08/02 06:45:09;;;;;;;3.13;1.27;;;;;;;18.04;40.99;100973.59;3570673;40;20038;-82
2021/08/02 06:47:39;;;;;;;2.10;1.00;;;;;;;18.05;41.34;100972.53;3605158;23;20041;-69
2021/08/02 06:50:08;;;;;;;1.92;1.17;;;;;;;18.06;40.93;100977.03;3571178;40;20048;-68
2021/08/02 06:52:35;;;;;;;2.50;1.10;;;;;;;18.06;41.11;100975.13;3562634;40;20041;-68
2021/08/02 06:55:05;;;;;;;4.38;1.30;;;;;;;18.08;40.61;100974.97;3555303;40;21290;-68
2021/08/02 06:57:33;;;;;;;3.92;1.35;;;;;;;18.09;40.53;100975.84;3547375;40;20205;-67
2021/08/02 07:00:01;;;;;;;2.28;1.27;;;;;;;18.11;40.66;100979.28;3560632;40;20057;-67
2021/08/02 07:02:29;;;;;;;3.63;1.40;;;;;;;18.12;40.95;100983.75;3562736;40;20052;-67
2021/08/02 07:04:58;;;;;;;3.20;1.60;;;;;;;18.14;40.35;100979.78;3567623;40;20053;-68
2021/08/02 07:07:26;;;;;;;3.95;1.60;;;;;;;18.15;40.37;100987.06;3567232;40;20042;-69
2021/08/02 07:09:54;;;;;;;4.45;1.48;;;;;;;18.16;40.30;100988.78;3568378;40;20493;-68
2021/08/02 07:12:22;;;;;;;2.95;1.27;;;;;;;18.17;40.83;100986.88;3567582;40;20029;-68
2021/08/02 07:14:50;;;;;;;4.68;1.48;;;;;;;18.19;40.22;100990.34;3566777;40;20057;-68
2021/08/02 07:17:18;;;;;;;3.22;1.20;;;;;;;18.20;40.72;100994.81;3564693;40;20049;-67
2021/08/02 07:19:45;;;;;;;4.45;1.60;;;;;;;18.20;40.42;100998.44;3566529;40;20147;-68
2021/08/02 07:22:16;;;;;;;2.03;1.08;;;;;;;18.23;40.48;101003.63;3565612;40;20045;-68
2021/08/02 07:24:44;;;;;;;2.80;1.10;;;;;;;18.22;40.46;100992.72;3560140;40;20555;-68
2021/08/02 07:27:12;;;;;;;2.40;1.30;;;;;;;18.23;40.75;100994.47;3567819;40;20653;-68
2021/08/02 07:29:39;;;;;;;3.75;1.30;;;;;;;18.25;40.19;100995.16;3571946;40;20033;-69
2021/08/02 07:32:08;;;;;;;5.07;1.77;;;;;;;18.25;40.05;100998.78;3579209;40;20133;-70
2021/08/02 07:34:36;;;;;;;3.10;1.48;;;;;;;18.27;40.16;101002.25;3579455;40;20392;-70
2021/08/02 07:37:05;;;;;;;2.92;1.55;;;;;;;18.28;40.43;101001.19;3579761;40;20146;-69
2021/08/02 07:39:34;;;;;;;3.35;1.58;;;;;;;18.31;40.48;100999.97;3574159;40;20102;-69
2021/08/02 07:42:02;;;;;;;4.03;1.33;;;;;;;18.30;40.07;100996.31;3567313;40;20119;-69
2021/08/02 07:44:30;;;;;;;4.57;1.80;;;;;;;18.32;40.16;100994.25;3569344;40;20114;-70
2021/08/02 07:46:58;;;;;;;3.63;1.40;;;;;;;18.35;39.93;101002.22;3569058;40;20038;-69
2021/08/02 07:49:30;;;;;;;3.58;1.20;;;;;;;18.38;40.33;101000.97;3548301;40;20096;-69
2021/08/02 07:51:58;;;;;;;3.67;1.20;;;;;;;18.40;39.78;101002.53;3568601;40;20040;-69
2021/08/02 07:54:26;;;;;;;4.10;1.70;;;;;;;18.44;40.20;101005.81;3569123;40;20807;-70
2021/08/02 07:56:55;;;;;;;2.75;1.60;;;;;;;18.49;39.93;101005.25;3569286;40;20047;-69
2021/08/02 07:59:23;;;;;;;3.47;1.33;;;;;;;18.50;39.99;101001.44;3568389;40;20041;-69
2021/08/02 08:01:51;;;;;;;2.17;1.20;;;;;;;18.54;39.98;101006.44;3569218;40;20042;-69
2021/08/02 08:04:19;;;;;;;2.60;1.40;;;;;;;18.58;39.67;101007.81;3568773;40;20030;-69
2021/08/02 08:06:47;;;;;;;3.42;1.45;;;;;;;18.61;39.72;101006.56;3568967;40;20041;-69
2021/08/02 08:09:15;;;;;;;2.17;1.20;;;;;;;18.64;39.66;100993.22;3568686;40;20042;-69
2021/08/02 08:11:43;;;;;;;3.55;1.20;;;;;;;18.67;39.85;101005.84;3568321;40;20493;-69
2021/08/02 08:14:12;;;;;;;2.85;1.23;;;;;;;18.71;39.53;101001.66;3557000;40;20033;-68
2021/08/02 08:16:40;;;;;;;2.42;1.20;;;;;;;18.71;39.54;100996.97;3567592;40;20065;-68
2021/08/02 08:19:08;;;;;;;3.95;1.30;;;;;;;18.74;39.27;101004.94;3568517;40;20041;-69
2021/08/02 08:21:37;;;;;;;1.90;0.82;;;;;;;18.76;38.75;101005.63;3567974;40;20059;-69
2021/08/02 08:24:06;;;;;;;2.88;1.20;;;;;;;18.78;39.01;101002.66;3568181;40;20033;-69
2021/08/02 08:26:35;;;;;;;2.30;0.85;;;;;;;18.78;38.70;101009.09;3568589;40;20436;-69
2021/08/02 08:29:03;;;;;;;1.80;1.08;;;;;;;18.78;38.43;101005.41;3568314;40;20045;-69
2021/08/02 08:31:33;;;;;;;1.95;1.10;;;;;;;18.80;38.39;101003.38;3569321;40;20111;-69
2021/08/02 08:34:01;;;;;;;2.80;1.02;;;;;;;18.77;38.69;101006.50;3567147;40;20049;-65
2021/08/02 08:36:29;;;;;;;2.28;1.38;;;;;;;18.77;38.26;101003.72;3569163;40;20035;-67
2021/08/02 08:38:57;;;;;;;1.60;0.90;;;;;;;18.77;38.83;101006.50;3567887;40;20038;-70
2021/08/02 08:41:25;;;;;;;1.15;0.80;;;;;;;18.76;38.89;101016.72;3567504;40;20057;-69
2021/08/02 08:43:54;;;;;;;2.40;1.00;;;;;;;18.76;38.88;101011.16;3574880;40;20037;-69
2021/08/02 08:46:25;;;;;;;2.63;1.10;;;;;;;18.76;38.44;101021.41;3557524;40;20038;-69
2021/08/02 08:48:54;;;;;;;2.72;0.90;;;;;;;18.75;38.65;101025.22;3556186;40;20066;-69
2021/08/02 08:51:24;;;;;;;2.28;0.90;;;;;;;18.76;38.90;101013.09;3576015;40;20459;-70
2021/08/02 08:53:53;;;;;;;1.45;0.80;;;;;;;18.77;38.87;101012.03;3576317;40;20041;-69
2021/08/02 08:56:21;;;;;;;3.20;0.93;;;;;;;18.76;38.75;101016.72;3577635;40;20338;-71
2021/08/02 08:58:49;;;;;;;3.00;1.08;;;;;;;18.77;38.51;101014.81;3576428;40;20049;-70
2021/08/02 09:01:26;;;;;;;1.48;0.85;;;;;;;18.81;37.95;101021.72;3576998;40;20033;-70
2021/08/02 09:03:58;;;;;;;4.50;1.10;;;;;;;18.79;38.45;101026.59;3576483;40;20047;-70
2021/08/02 09:06:26;;;;;;;2.45;1.00;;;;;;;18.75;38.63;101025.22;3557557;40;20403;-70
2021/08/02 09:08:54;;;;;;;2.53;1.10;;;;;;;18.76;38.68;101029.72;3560921;40;20277;-69
2021/08/02 09:11:25;;;;;;;2.65;1.10;;;;;;;18.76;38.03;101030.56;3577170;40;20033;-69
2021/08/02 09:13:54;;;;;;;2.42;1.20;;;;;;;18.75;38.63;101023.31;3567563;40;20150;-69
2021/08/02 09:16:25;;;;;;;2.08;1.10;;;;;;;18.77;38.61;101025.91;3577539;40;20033;-70
2021/08/02 09:18:58;;;;;;;2.28;1.00;;;;;;;18.79;37.80;101021.03;3577021;40;20047;-70
2021/08/02 09:21:27;;;;;;;1.90;0.95;;;;;;;18.76;38.48;101021.41;3577947;40;20114;-69
2021/08/02 09:23:57;;;;;;;3.53;1.48;;;;;;;18.78;38.62;101028.50;3559756;40;20045;-69
2021/08/02 09:26:33;;;;;;;3.22;1.40;;;;;;;18.81;37.90;101030.03;3558882;40;20153;-69
2021/08/02 09:29:01;;;;;;;2.63;1.35;;;;;;;18.80;38.74;101029.19;3557819;40;20053;-70
2021/08/02 09:31:33;;;;;;;4.22;1.40;;;;;;;18.84;38.53;101023.28;3566849;40;20389;-70
2021/08/02 09:34:04;;;;;;;3.55;1.50;;;;;;;18.83;38.55;101027.09;3556874;40;20052;-69
2021/08/02 09:36:41;;;;;;;3.67;1.40;;;;;;;18.87;38.49;101026.53;3565663;40;20135;-69
2021/08/02 09:39:10;;;;;;;3.55;1.40;;;;;;;18.87;38.75;101025.66;3553803;40;20462;-70
2021/08/02 09:41:38;;;;;;;3.83;1.58;;;;;;;18.87;38.53;101022.91;3568511;40;20030;-70
2021/08/02 09:44:07;;;;;;;3.35;1.30;;;;;;;18.88;38.56;101036.59;3567193;40;20037;-70
2021/08/02 09:46:34;;;;;;;2.85;1.40;;;;;;;18.88;38.05;101031.03;3567193;40;20116;-70
2021/08/02 09:49:05;;;;;;;2.78;1.42;;;;;;;18.89;38.42;101030.00;3566645;40;20049;-70
2021/08/02 09:51:43;;;;;;;3.97;1.80;;;;;;;18.89;38.21;101027.22;3566673;40;20042;-69
2021/08/02 09:54:23;;;;;;;2.58;1.70;;;;;;;18.88;38.27;101032.94;3566846;40;20115;-70
2021/08/02 09:56:52;;;;;;;3.40;1.55;;;;;;;18.84;38.47;101040.78;3566911;40;20033;-69
2021/08/02 09:59:20;;;;;;;4.18;1.67;;;;;;;18.84;38.06;101038.00;3545015;40;20054;-69
2021/08/02 10:01:49;;;;;;;3.78;1.70;;;;;;;18.85;38.11;101036.09;3564713;40;20062;-71
2021/08/02 10:04:20;;;;;;;2.83;1.50;;;;;;;18.86;38.43;101029.47;3557006;40;20599;-72
2021/08/02 10:06:49;;;;;;;3.25;1.60;;;;;;;18.79;38.21;101030.22;3557088;40;20445;-72
2021/08/02 10:09:17;;;;;;;3.80;1.60;;;;;;;18.79;37.90;101033.00;3566417;40;20038;-75
2021/08/02 10:11:45;;;;;;;2.72;1.20;;;;;;;18.79;37.77;101032.13;3567192;40;20123;-71
2021/08/02 10:14:19;;;;;;;3.92;1.42;;;;;;;18.77;38.34;101035.03;3566478;40;20064;-71
2021/08/02 10:16:48;;;;;;;1.90;1.20;;;;;;;18.78;38.10;101038.69;3566225;40;20034;-70
2021/08/02 10:19:19;;;;;;;2.63;1.13;;;;;;;18.76;38.49;101041.66;3564512;40;20049;-71
2021/08/02 10:21:49;;;;;;;2.83;1.23;;;;;;;18.79;38.45;101041.31;3566733;40;20715;-70
2021/08/02 10:24:18;;;;;;;4.55;1.42;;;;;;;18.78;38.50;101042.34;3566193;40;20328;-72
2021/08/02 10:26:56;;;;;;;2.45;1.30;;;;;;;18.83;37.86;101040.94;3567265;40;20627;-71
2021/08/02 10:29:25;;;;;;;2.35;1.33;;;;;;;18.80;38.27;101039.41;3566889;40;20314;-72
2021/08/02 10:31:53;;;;;;;3.95;1.42;;;;;;;18.83;37.96;101040.94;3566877;40;20119;-71
2021/08/02 10:34:24;;;;;;;1.88;1.08;;;;;;;18.85;37.69;101036.97;3566245;40;20045;-71
2021/08/02 10:37:01;;;;;;;1.95;1.08;;;;;;;18.88;37.98;101044.03;3567077;40;20119;-70
2021/08/02 10:39:33;;;;;;;2.38;1.20;;;;;;;18.88;37.71;101033.81;3565805;40;20061;-71
2021/08/02 10:42:09;;;;;;;1.85;1.10;;;;;;;18.91;37.44;101038.13;3555253;40;20045;-71
2021/08/02 10:44:58;;;;;;;2.47;1.30;;;;;;;18.87;37.57;101043.16;3555394;40;20029;-69
2021/08/02 10:47:38;;;;;;;2.72;1.10;;;;;;;18.91;37.35;101039.00;3555084;40;20046;-69
2021/08/02 10:50:08;;;;;;;3.47;1.02;;;;;;;18.91;37.69;101043.69;3562444;40;20034;-70
2021/08/02 10:52:38;;;;;;;2.90;1.10;;;;;;;18.93;37.74;101036.06;3573042;40;20045;-70
2021/08/02 10:55:14;;;;;;;1.95;1.10;;;;;;;18.94;37.08;101041.38;3573863;40;20438;-70
2021/08/02 10:57:41;;;;;;;2.15;1.05;;;;;;;18.94;37.15;101040.53;3565178;40;20420;-70
2021/08/02 11:00:19;;;;;;;1.52;1.02;;;;;;;18.98;37.01;101039.13;3566385;40;20312;-70
2021/08/02 11:02:52;;;;;;;1.55;1.00;;;;;;;18.98;37.44;101045.53;3557193;40;20041;-70
2021/08/02 11:05:20;;;;;;;3.35;1.20;;;;;;;18.97;37.14;101034.63;3565921;40;20353;-70
2021/08/02 11:07:50;;;;;;;5.57;1.52;;;;;;;19.00;37.50;101035.13;3565780;40;20045;-70
2021/08/02 11:10:18;;;;;;;5.88;1.20;;;;;;;19.00;37.26;101028.72;3566856;40;20347;-70
2021/08/02 11:12:48;;;;;;;1.73;1.02;;;;;;;19.01;37.38;101028.53;3565967;40;20099;-70
2021/08/02 11:15:16;;;;;;;3.15;1.20;;;;;;;19.00;37.19;101029.59;3566199;40;20115;-70
2021/08/02 11:17:51;;;;;;;2.35;1.10;;;;;;;19.05;37.37;101015.16;3565752;40;20065;-70
2021/08/02 11:20:21;;;;;;;2.35;1.23;;;;;;;19.04;36.96;101018.97;3558906;40;20081;-71
2021/08/02 11:22:51;;;;;;;3.28;1.08;;;;;;;19.09;37.22;101030.41;3560159;40;20112;-70
2021/08/02 11:25:27;;;;;;;3.15;1.02;;;;;;;19.12;36.63;101032.78;3561409;40;20038;-70
2021/08/02 11:27:56;;;;;;;3.75;1.20;;;;;;;19.11;37.09;101031.91;3565570;40;20048;-70
2021/08/02 11:30:26;;;;;;;4.40;1.30;;;;;;;19.16;37.30;101028.59;3574200;40;20034;-70
2021/08/02 11:32:56;;;;;;;2.83;1.27;;;;;;;19.18;36.84;101030.13;3564624;40;20045;-70
2021/08/02 11:35:33;;;;;;;3.33;1.33;;;;;;;19.24;36.93;101031.31;3566136;40;20056;-70
2021/08/02 11:38:03;;;;;;;2.90;1.25;;;;;;;19.26;37.13;101032.00;3565836;40;20127;-70
2021/08/02 11:40:36;;;;;;;2.92;1.35;;;;;;;19.32;36.84;101036.81;3566215;40;20324;-70